createdAt,value
2018-08-28T00:02:18.383Z,96928.91
2018-08-28T00:04:47.156Z,96919.70
2018-08-28T00:07:15.912Z,96929.27
2018-08-28T00:09:44.784Z,96922.34
2018-08-28T00:12:13.567Z,96922.37
2018-08-28T00:14:42.340Z,96926.66
2018-08-28T00:17:11.206Z,96926.19
2018-08-28T00:19:39.875Z,96918.23
2018-08-28T00:22:08.714Z,96922.28
2018-08-28T00:24:37.504Z,96925.60
2018-08-28T00:27:06.280Z,96929.22
2018-08-28T00:29:35.056Z,96934.30
2018-08-28T00:32:03.876Z,96935.30
2018-08-28T00:34:32.729Z,96935.14
2018-08-28T00:37:01.520Z,96937.79
2018-08-28T00:39:30.307Z,96940.70
2018-08-28T00:41:59.101Z,96938.86
2018-08-28T00:44:27.993Z,96939.80
2018-08-28T00:46:56.762Z,96941.41
2018-08-28T00:49:25.536Z,96955.95
2018-08-28T00:51:54.345Z,96960.22
2018-08-28T00:54:23.233Z,96953.64
2018-08-28T00:56:52.056Z,96952.07
2018-08-28T00:59:20.815Z,96960.05
2018-08-28T01:01:49.613Z,96957.27
2018-08-28T01:04:18.379Z,96959.70
2018-08-28T01:06:47.149Z,96968.37
2018-08-28T01:09:15.987Z,96968.22
2018-08-28T01:11:44.810Z,96958.09
2018-08-28T01:14:13.609Z,96964.23
2018-08-28T01:16:42.435Z,96962.45
2018-08-28T01:19:11.205Z,96959.39
2018-08-28T01:21:40.314Z,96962.58
2018-08-28T01:24:09.088Z,96956.95
2018-08-28T01:26:37.879Z,96964.11
2018-08-28T01:29:06.687Z,96963.03
2018-08-28T01:31:35.452Z,96965.95
2018-08-28T01:34:04.264Z,96970.61
2018-08-28T01:36:33.062Z,96968.53
2018-08-28T01:39:01.821Z,96966.00
2018-08-28T01:41:30.603Z,96964.50
2018-08-28T01:43:59.437Z,96965.13
2018-08-28T01:46:28.265Z,96969.67
2018-08-28T01:48:57.039Z,96962.08
2018-08-28T01:51:25.824Z,96966.69
2018-08-28T01:53:54.596Z,96964.34
2018-08-28T01:56:23.377Z,96969.31
2018-08-28T01:58:52.150Z,96968.20
2018-08-28T02:01:21.772Z,96974.41
2018-08-28T02:03:50.540Z,96969.39
2018-08-28T02:06:19.293Z,96965.70
2018-08-28T02:08:48.072Z,96972.27
2018-08-28T02:11:16.850Z,96971.78
2018-08-28T02:13:45.620Z,96981.31
2018-08-28T02:16:14.416Z,96976.38
2018-08-28T02:18:43.196Z,96976.94
2018-08-28T02:21:12.225Z,96975.52
2018-08-28T02:23:40.984Z,96977.19
2018-08-28T02:26:09.808Z,96971.68
2018-08-28T02:28:39.329Z,96978.22
2018-08-28T02:31:08.691Z,96976.83
2018-08-28T02:33:37.604Z,96976.31
2018-08-28T02:36:07.248Z,96975.28
2018-08-28T02:38:36.009Z,96972.34
2018-08-28T02:41:04.940Z,96971.02
2018-08-28T02:43:33.697Z,96978.00
2018-08-28T02:46:02.528Z,96981.77
2018-08-28T02:48:32.752Z,96982.52
2018-08-28T02:51:01.608Z,96976.43
2018-08-28T02:53:30.393Z,96980.83
2018-08-28T02:55:59.175Z,96980.20
2018-08-28T02:58:27.961Z,96979.00
2018-08-28T03:00:56.752Z,96976.77
2018-08-28T03:03:25.520Z,96978.83
2018-08-28T03:05:54.312Z,96983.34
2018-08-28T03:08:23.096Z,96981.15
2018-08-28T03:10:51.946Z,96981.53
2018-08-28T03:13:20.728Z,96982.89
2018-08-28T03:15:49.611Z,96986.81
2018-08-28T03:18:18.576Z,96986.28
2018-08-28T03:20:47.348Z,96989.23
2018-08-28T03:23:16.305Z,96991.08
2018-08-28T03:25:45.132Z,96986.73
2018-08-28T03:28:14.185Z,96992.67
2018-08-28T03:30:42.950Z,96996.17
2018-08-28T03:33:11.715Z,96986.72
2018-08-28T03:35:40.503Z,96988.64
2018-08-28T03:38:09.279Z,96986.62
2018-08-28T03:40:38.060Z,96990.81
2018-08-28T03:43:06.875Z,96988.33
2018-08-28T03:45:35.662Z,96990.45
2018-08-28T03:48:04.433Z,96990.23
2018-08-28T03:50:33.296Z,96993.42
2018-08-28T03:53:02.060Z,96997.55
2018-08-28T03:55:30.864Z,96997.55
2018-08-28T03:57:59.673Z,96998.66
2018-08-28T04:00:28.439Z,97001.12
2018-08-28T04:02:58.824Z,96998.19
2018-08-28T04:05:29.838Z,96997.16
2018-08-28T04:07:59.561Z,97004.06
2018-08-28T04:10:29.762Z,97005.39
2018-08-28T04:13:00.042Z,97005.61
2018-08-28T04:15:28.867Z,97007.55
2018-08-28T04:17:57.642Z,97015.33
2018-08-28T04:20:26.422Z,97013.98
2018-08-28T04:22:55.217Z,97013.44
2018-08-28T04:25:25.206Z,97019.87
2018-08-28T04:27:56.035Z,97019.81
2018-08-28T04:30:25.595Z,97013.76
2018-08-28T04:32:55.859Z,97020.70
2018-08-28T04:35:25.930Z,97016.17
2018-08-28T04:37:55.201Z,97021.48
2018-08-28T04:40:25.617Z,97026.34
2018-08-28T04:42:54.726Z,97029.45
2018-08-28T04:45:23.493Z,97032.53
2018-08-28T04:47:52.258Z,97040.22
2018-08-28T04:50:21.020Z,97044.30
2018-08-28T04:52:49.804Z,97043.93
2018-08-28T04:55:18.585Z,97039.48
2018-08-28T04:57:47.357Z,97037.31
2018-08-28T05:00:16.249Z,97039.30
2018-08-28T05:02:45.366Z,97043.16
2018-08-28T05:05:14.494Z,97047.73
2018-08-28T05:07:43.277Z,97046.89
2018-08-28T05:10:12.469Z,97047.37
2018-08-28T05:12:41.425Z,97046.27
2018-08-28T05:15:10.273Z,97042.89
2018-08-28T05:17:39.077Z,97058.64
2018-08-28T05:20:08.025Z,97050.88
2018-08-28T05:22:37.061Z,97059.45
2018-08-28T05:25:05.970Z,97052.45
2018-08-28T05:27:34.736Z,97057.28
2018-08-28T05:30:03.516Z,97054.61
2018-08-28T05:32:32.338Z,97055.30
2018-08-28T05:35:01.167Z,97057.42
2018-08-28T05:37:29.919Z,97054.55
2018-08-28T05:39:58.676Z,97056.36
2018-08-28T05:42:27.425Z,97059.56
2018-08-28T05:44:56.180Z,97058.84
2018-08-28T05:47:24.928Z,97055.44
2018-08-28T05:49:53.692Z,97056.42
2018-08-28T05:52:22.594Z,97059.27
2018-08-28T05:54:51.382Z,97060.56
2018-08-28T05:57:20.131Z,97059.44
2018-08-28T05:59:48.879Z,97054.55
2018-08-28T06:02:17.642Z,97057.05
2018-08-28T06:04:46.383Z,97054.27
2018-08-28T06:07:15.187Z,97054.38
2018-08-28T06:09:43.927Z,97055.20
2018-08-28T06:12:12.731Z,97055.84
2018-08-28T06:14:41.559Z,97059.28
2018-08-28T06:17:10.330Z,97053.69
2018-08-28T06:19:39.090Z,97060.02
2018-08-28T06:22:07.855Z,97061.70
2018-08-28T06:24:36.618Z,97058.31
2018-08-28T06:27:05.381Z,97062.66
2018-08-28T06:29:34.153Z,97058.95
2018-08-28T06:32:02.923Z,97056.30
2018-08-28T06:34:31.692Z,97055.73
2018-08-28T06:37:00.477Z,97062.52
2018-08-28T06:39:29.260Z,97065.00
2018-08-28T06:41:58.014Z,97062.35
2018-08-28T06:44:26.920Z,97059.36
2018-08-28T06:46:55.684Z,97067.95
2018-08-28T06:49:24.466Z,97062.92
2018-08-28T06:51:53.289Z,97071.38
2018-08-28T06:54:22.072Z,97067.46
2018-08-28T06:56:50.936Z,97058.52
2018-08-28T06:59:19.689Z,97061.28
2018-08-28T07:01:48.741Z,97056.91
2018-08-28T07:04:17.492Z,97055.43
2018-08-28T07:06:46.232Z,97054.16
2018-08-28T07:09:15.002Z,97060.59
2018-08-28T07:11:43.780Z,97054.66
2018-08-28T07:14:12.549Z,97055.73
2018-08-28T07:16:41.311Z,97054.00
2018-08-28T07:19:10.081Z,97055.74
2018-08-28T07:21:38.894Z,97047.97
2018-08-28T07:24:07.673Z,97048.75
2018-08-28T07:26:36.504Z,97051.72
2018-08-28T07:29:05.296Z,97049.52
2018-08-28T07:31:34.092Z,97052.84
2018-08-28T07:34:02.852Z,97052.41
2018-08-28T07:36:31.605Z,97048.12
2018-08-28T07:39:00.351Z,97040.86
2018-08-28T07:41:29.110Z,97049.34
2018-08-28T07:43:57.879Z,97050.98
2018-08-28T07:46:26.660Z,97048.98
2018-08-28T07:48:55.453Z,97046.01
2018-08-28T07:51:24.277Z,97054.20
2018-08-28T07:53:53.087Z,97052.86
2018-08-28T07:56:21.856Z,97058.55
2018-08-28T07:58:50.621Z,97056.11
2018-08-28T08:01:20.295Z,97055.79
2018-08-28T08:03:49.044Z,97053.79
2018-08-28T08:06:17.817Z,97058.37
2018-08-28T08:08:46.612Z,97066.13
2018-08-28T08:11:15.418Z,97074.96
2018-08-28T08:13:44.172Z,97076.14
2018-08-28T08:16:12.985Z,97068.42
2018-08-28T08:18:41.774Z,97064.05
2018-08-28T08:21:10.559Z,97075.66
2018-08-28T08:23:39.324Z,97075.44
2018-08-28T08:26:08.180Z,97074.02
2018-08-28T08:28:36.961Z,97063.95
2018-08-28T08:31:05.814Z,97070.73
2018-08-28T08:33:34.572Z,97074.92
2018-08-28T08:36:03.336Z,97071.72
2018-08-28T08:38:32.083Z,97069.02
2018-08-28T08:41:00.868Z,97069.63
2018-08-28T08:43:29.620Z,97069.07
2018-08-28T08:45:58.385Z,97071.69
2018-08-28T08:48:27.144Z,97065.74
2018-08-28T08:50:55.912Z,97066.27
2018-08-28T08:53:24.872Z,97066.19
2018-08-28T08:55:53.656Z,97066.34
2018-08-28T08:58:22.460Z,97064.48
2018-08-28T09:00:51.248Z,97063.55
2018-08-28T09:03:20.053Z,97058.94
2018-08-28T09:05:48.860Z,97061.50
2018-08-28T09:08:17.625Z,97052.91
2018-08-28T09:10:46.394Z,97057.84
2018-08-28T09:13:15.176Z,97056.39
2018-08-28T09:15:43.926Z,97057.04
2018-08-28T09:18:12.714Z,97062.12
2018-08-28T09:20:41.457Z,97060.77
2018-08-28T09:23:10.243Z,97058.10
2018-08-28T09:25:39.032Z,97056.44
2018-08-28T09:28:07.797Z,97048.31
2018-08-28T09:30:36.574Z,97050.00
2018-08-28T09:33:05.417Z,97050.61
2018-08-28T09:35:34.692Z,97056.96
2018-08-28T09:38:03.481Z,97050.92
2018-08-28T09:40:32.242Z,97055.86
2018-08-28T09:43:00.981Z,97048.09
2018-08-28T09:45:29.794Z,97049.05
2018-08-28T09:47:58.629Z,97043.78
2018-08-28T09:50:27.384Z,97043.00
2018-08-28T09:52:56.173Z,97038.28
2018-08-28T09:55:24.960Z,97038.13
2018-08-28T09:57:53.739Z,97033.89
2018-08-28T10:00:27.392Z,97033.55
2018-08-28T10:02:56.816Z,97037.96
2018-08-28T10:05:25.809Z,97035.03
2018-08-28T10:07:54.673Z,97030.38
2018-08-28T10:10:23.369Z,97029.03
2018-08-28T10:12:52.145Z,97026.51
2018-08-28T10:15:20.920Z,97023.50
2018-08-28T10:17:49.683Z,97018.36
2018-08-28T10:20:18.456Z,97015.66
2018-08-28T10:22:47.288Z,97016.75
2018-08-28T10:25:16.005Z,97020.20
2018-08-28T10:27:44.849Z,97018.97
2018-08-28T10:30:13.658Z,97013.05
2018-08-28T10:32:42.392Z,97011.96
2018-08-28T10:35:11.157Z,97006.92
2018-08-28T10:37:39.940Z,96999.58
2018-08-28T10:40:08.720Z,96996.17
2018-08-28T10:42:37.486Z,97004.33
2018-08-28T10:45:06.460Z,97002.12
2018-08-28T10:47:35.240Z,97004.78
2018-08-28T10:50:04.078Z,97001.58
2018-08-28T10:52:32.988Z,96993.43
2018-08-28T10:55:01.753Z,96994.59
2018-08-28T10:57:30.508Z,96993.33
2018-08-28T10:59:59.260Z,97002.23
2018-08-28T11:02:28.042Z,96994.99
2018-08-28T11:04:56.832Z,96993.05
2018-08-28T11:07:25.612Z,96988.96
2018-08-28T11:09:54.362Z,96985.69
2018-08-28T11:12:23.143Z,96984.17
2018-08-28T11:14:51.902Z,96986.21
2018-08-28T11:17:20.659Z,96983.94
2018-08-28T11:19:49.508Z,96979.01
2018-08-28T11:22:18.289Z,96977.21
2018-08-28T11:24:47.045Z,96969.44
2018-08-28T11:27:15.885Z,96973.25
2018-08-28T11:29:44.660Z,96966.64
2018-08-28T11:32:13.444Z,96963.40
2018-08-28T11:34:42.199Z,96958.42
2018-08-28T11:37:11.044Z,96963.05
2018-08-28T11:39:39.804Z,96960.27
2018-08-28T11:42:08.589Z,96958.28
2018-08-28T11:44:37.332Z,96960.06
2018-08-28T11:47:06.169Z,96961.54
2018-08-28T11:49:34.911Z,96964.58
2018-08-28T11:52:03.708Z,96958.35
2018-08-28T11:54:32.496Z,96957.34
2018-08-28T11:57:01.281Z,96954.38
2018-08-28T11:59:30.052Z,96953.34
2018-08-28T12:01:58.826Z,96956.84
2018-08-28T12:04:27.599Z,96943.85
2018-08-28T12:06:56.391Z,96940.52
2018-08-28T12:09:25.117Z,96941.51
2018-08-28T12:11:53.883Z,96942.11
2018-08-28T12:14:22.656Z,96935.58
2018-08-28T12:16:51.440Z,96931.17
2018-08-28T12:19:20.201Z,96923.84
2018-08-28T12:21:48.974Z,96929.59
2018-08-28T12:24:17.788Z,96918.20
2018-08-28T12:26:46.565Z,96912.41
2018-08-28T12:29:15.335Z,96908.56
2018-08-28T12:31:44.101Z,96904.00
2018-08-28T12:34:12.899Z,96902.54
2018-08-28T12:36:41.710Z,96900.30
2018-08-28T12:39:10.504Z,96894.47
2018-08-28T12:41:39.316Z,96898.13
2018-08-28T12:44:08.190Z,96894.48
2018-08-28T12:46:36.852Z,96898.59
2018-08-28T12:49:05.663Z,96895.74
2018-08-28T12:51:34.460Z,96890.85
2018-08-28T12:54:03.243Z,96889.70
2018-08-28T12:56:32.035Z,96886.06
2018-08-28T12:59:00.801Z,96882.23
2018-08-28T13:01:29.565Z,96882.35
2018-08-28T13:03:59.488Z,96876.91
2018-08-28T13:06:28.660Z,96875.79
2018-08-28T13:08:57.777Z,96875.73
2018-08-28T13:11:27.374Z,96877.72
2018-08-28T13:13:56.384Z,96874.30
2018-08-28T13:16:25.145Z,96876.64
2018-08-28T13:18:54.178Z,96871.68
2018-08-28T13:21:22.917Z,96874.36
2018-08-28T13:23:51.706Z,96865.41
2018-08-28T13:26:20.481Z,96871.79
2018-08-28T13:28:49.250Z,96874.45
2018-08-28T13:31:18.029Z,96873.17
2018-08-28T13:33:46.871Z,96865.17
2018-08-28T13:36:15.619Z,96868.67
2018-08-28T13:38:44.408Z,96858.24
2018-08-28T13:41:13.185Z,96858.52
2018-08-28T13:43:41.945Z,96858.38
2018-08-28T13:46:10.688Z,96846.86
2018-08-28T13:48:39.530Z,96850.94
2018-08-28T13:51:08.327Z,96854.99
2018-08-28T13:53:37.143Z,96858.61
2018-08-28T13:56:05.892Z,96851.62
2018-08-28T13:58:34.689Z,96853.33
2018-08-28T14:01:03.473Z,96851.83
2018-08-28T14:03:32.254Z,96858.13
2018-08-28T14:06:01.065Z,96851.02
2018-08-28T14:08:29.813Z,96853.74
2018-08-28T14:10:58.582Z,96851.20
2018-08-28T14:13:27.499Z,96849.39
2018-08-28T14:15:56.196Z,96844.66
2018-08-28T14:18:25.046Z,96845.27
2018-08-28T14:20:53.804Z,96839.30
2018-08-28T14:23:22.641Z,96832.89
2018-08-28T14:25:52.002Z,96835.97
2018-08-28T14:28:20.808Z,96829.73
2018-08-28T14:30:49.582Z,96832.39
2018-08-28T14:33:18.388Z,96826.34
2018-08-28T14:35:47.278Z,96826.23
2018-08-28T14:38:15.998Z,96823.29
2018-08-28T14:40:44.881Z,96829.11
2018-08-28T14:43:13.668Z,96828.17
2018-08-28T14:45:42.436Z,96828.91
2018-08-28T14:48:11.213Z,96823.45
2018-08-28T14:50:39.985Z,96820.37
2018-08-28T14:53:08.791Z,96812.29
2018-08-28T14:55:37.564Z,96815.28
2018-08-28T14:58:06.402Z,96810.57
2018-08-28T15:00:35.205Z,96809.89
2018-08-28T15:03:03.994Z,96809.68
2018-08-28T15:05:32.776Z,96806.62
2018-08-28T15:08:01.515Z,96801.22
2018-08-28T15:10:30.404Z,96800.73
2018-08-28T15:12:59.163Z,96801.70
2018-08-28T15:15:27.933Z,96795.82
2018-08-28T15:17:56.732Z,96799.80
2018-08-28T15:20:25.484Z,96796.39
2018-08-28T15:22:54.247Z,96795.66
2018-08-28T15:25:23.012Z,96791.74
2018-08-28T15:27:51.788Z,96794.97
2018-08-28T15:30:20.545Z,96784.55
2018-08-28T15:32:49.334Z,96786.23
2018-08-28T15:35:18.129Z,96785.66
2018-08-28T15:37:46.884Z,96783.36
2018-08-28T15:40:15.687Z,96782.19
2018-08-28T15:42:44.446Z,96780.05
2018-08-28T15:45:13.201Z,96778.98
2018-08-28T15:47:41.980Z,96781.05
2018-08-28T15:50:10.770Z,96774.03
2018-08-28T15:52:39.528Z,96772.73
2018-08-28T15:55:08.328Z,96769.69
2018-08-28T15:57:37.163Z,96772.15
2018-08-28T16:00:07.169Z,96766.83
2018-08-28T16:02:35.993Z,96767.42
2018-08-28T16:05:04.825Z,96774.36
2018-08-28T16:07:33.588Z,96771.77
2018-08-28T16:10:02.353Z,96776.63
2018-08-28T16:12:31.110Z,96775.69
2018-08-28T16:14:59.919Z,96774.47
2018-08-28T16:17:28.699Z,96778.20
2018-08-28T16:19:57.475Z,96772.40
2018-08-28T16:22:32.014Z,96773.12
2018-08-28T16:25:00.777Z,96773.70
2018-08-28T16:27:29.578Z,96772.52
2018-08-28T16:29:58.355Z,96770.78
2018-08-28T16:32:27.124Z,96770.39
2018-08-28T16:34:55.871Z,96759.87
2018-08-28T16:37:24.714Z,96761.03
2018-08-28T16:39:53.477Z,96760.65
2018-08-28T16:42:22.247Z,96756.27
2018-08-28T16:44:51.016Z,96761.03
2018-08-28T16:47:19.802Z,96757.38
2018-08-28T16:49:48.585Z,96760.67
2018-08-28T16:52:17.361Z,96750.94
2018-08-28T16:54:46.136Z,96750.47
2018-08-28T16:57:14.909Z,96751.05
2018-08-28T16:59:43.652Z,96743.41
2018-08-28T17:02:12.418Z,96739.55
2018-08-28T17:04:41.164Z,96740.63
2018-08-28T17:07:09.975Z,96738.14
2018-08-28T17:09:38.704Z,96731.03
2018-08-28T17:12:07.491Z,96722.29
2018-08-28T17:14:36.276Z,96729.27
2018-08-28T17:17:05.136Z,96727.23
2018-08-28T17:19:34.270Z,96727.84
2018-08-28T17:22:03.296Z,96726.59
2018-08-28T17:24:32.104Z,96730.69
2018-08-28T17:27:00.932Z,96729.52
2018-08-28T17:29:29.774Z,96727.50
2018-08-28T17:31:58.655Z,96729.86
2018-08-28T17:34:27.944Z,96729.36
2018-08-28T17:36:56.758Z,96734.38
2018-08-28T17:39:25.594Z,96728.29
2018-08-28T17:41:54.984Z,96728.93
2018-08-28T17:44:23.775Z,96738.44
2018-08-28T17:46:52.528Z,96745.09
2018-08-28T17:49:21.338Z,96742.38
2018-08-28T17:51:50.415Z,96744.45
2018-08-28T17:54:19.235Z,96749.07
2018-08-28T17:56:47.981Z,96750.70
2018-08-28T17:59:16.739Z,96757.73
2018-08-28T18:01:45.520Z,96752.14
2018-08-28T18:04:14.456Z,96752.18
2018-08-28T18:06:43.253Z,96760.52
2018-08-28T18:09:12.072Z,96764.78
2018-08-28T18:11:40.865Z,96768.13
2018-08-28T18:14:09.704Z,96767.31
2018-08-28T18:16:38.630Z,96773.12
2018-08-28T18:19:07.465Z,96771.83
2018-08-28T18:21:36.393Z,96768.95
2018-08-28T18:24:05.250Z,96778.36
2018-08-28T18:26:34.077Z,96779.87
2018-08-28T18:29:02.959Z,96769.28
2018-08-28T18:31:31.813Z,96777.05
2018-08-28T18:34:00.695Z,96777.17
2018-08-28T18:36:29.486Z,96782.20
2018-08-28T18:38:58.647Z,96776.02
2018-08-28T18:41:27.509Z,96776.87
2018-08-28T18:43:56.283Z,96775.47
2018-08-28T18:46:25.139Z,96773.73
2018-08-28T18:48:54.006Z,96772.19
2018-08-28T18:51:22.823Z,96777.19
2018-08-28T18:53:51.656Z,96781.75
2018-08-28T18:56:20.752Z,96780.02
2018-08-28T18:58:49.684Z,96785.89
2018-08-28T19:01:18.443Z,96784.56
2018-08-28T19:03:47.390Z,96778.64
2018-08-28T19:06:16.442Z,96781.02
2018-08-28T19:08:45.468Z,96780.23
2018-08-28T19:11:14.535Z,96784.75
2018-08-28T19:13:43.376Z,96780.81
2018-08-28T19:16:12.470Z,96782.91
2018-08-28T19:18:41.284Z,96786.96
2018-08-28T19:21:10.148Z,96788.53
2018-08-28T19:23:38.909Z,96780.77
2018-08-28T19:26:08.116Z,96786.28
2018-08-28T19:28:37.489Z,96788.11
2018-08-28T19:31:06.585Z,96781.86
2018-08-28T19:33:35.605Z,96780.36
2018-08-28T19:36:04.436Z,96784.77
2018-08-28T19:38:33.611Z,96779.65
2018-08-28T19:41:02.543Z,96777.98
2018-08-28T19:43:31.335Z,96779.53
2018-08-28T19:46:00.368Z,96778.78
2018-08-28T19:48:29.210Z,96780.14
2018-08-28T19:50:58.029Z,96777.98
2018-08-28T19:53:27.609Z,96767.02
2018-08-28T19:55:56.556Z,96770.77
2018-08-28T19:58:25.704Z,96771.71
2018-08-28T20:00:54.501Z,96769.66
2018-08-28T20:03:23.582Z,96773.34
2018-08-28T20:05:52.803Z,96762.27
2018-08-28T20:08:22.319Z,96763.66
2018-08-28T20:10:51.254Z,96761.01
2018-08-28T20:13:20.008Z,96758.77
2018-08-28T20:15:48.879Z,96755.94
2018-08-28T20:18:17.783Z,96753.79
2018-08-28T20:20:46.633Z,96751.03
2018-08-28T20:23:15.630Z,96752.67
2018-08-28T20:25:44.472Z,96748.67
2018-08-28T20:28:13.576Z,96750.12
2018-08-28T20:30:42.320Z,96745.62
2018-08-28T20:33:11.100Z,96745.99
2018-08-28T20:35:39.917Z,96740.63
2018-08-28T20:38:08.712Z,96739.95
2018-08-28T20:40:37.616Z,96743.19
2018-08-28T20:43:06.455Z,96739.80
2018-08-28T20:45:35.252Z,96740.58
2018-08-28T20:48:04.630Z,96733.61
2018-08-28T20:50:35.963Z,96732.03
2018-08-28T20:53:06.433Z,96728.12
2018-08-28T20:55:35.584Z,96732.66
2018-08-28T20:58:04.585Z,96729.05
2018-08-28T21:00:36.113Z,96728.23
2018-08-28T21:03:05.628Z,96722.08
2018-08-28T21:05:34.572Z,96718.80
2018-08-28T21:08:03.420Z,96719.62
2018-08-28T21:10:32.199Z,96720.45
2018-08-28T21:13:01.088Z,96716.72
2018-08-28T21:15:31.794Z,96716.72
2018-08-28T21:18:00.742Z,96719.09
2018-08-28T21:20:29.660Z,96721.27
2018-08-28T21:22:58.500Z,96714.70
2018-08-28T21:25:27.272Z,96713.60
2018-08-28T21:27:56.108Z,96713.97
2018-08-28T21:30:24.906Z,96711.31
2018-08-28T21:32:53.673Z,96708.39
2018-08-28T21:35:22.453Z,96705.41
2018-08-28T21:37:51.309Z,96700.48
2018-08-28T21:40:20.093Z,96701.11
2018-08-28T21:42:49.134Z,96698.96
2018-08-28T21:45:17.917Z,96693.97
2018-08-28T21:47:46.689Z,96692.77
2018-08-28T21:50:15.973Z,96689.98
2018-08-28T21:52:44.989Z,96691.98
2018-08-28T21:55:13.801Z,96691.98
2018-08-28T21:57:42.547Z,96692.43
2018-08-28T22:00:11.684Z,96687.38
2018-08-28T22:02:40.480Z,96688.08
2018-08-28T22:05:11.856Z,96676.17
2018-08-28T22:07:41.846Z,96675.95
2018-08-28T22:10:11.135Z,96675.83
2018-08-28T22:13:20.437Z,96681.62
2018-08-28T22:15:49.849Z,96665.86
2018-08-28T22:18:18.884Z,96664.38
2018-08-28T22:20:53.031Z,96668.22
2018-08-28T22:23:21.792Z,96667.54
2018-08-28T22:25:51.170Z,96668.77
2018-08-28T22:28:19.955Z,96663.51
2018-08-28T22:30:49.333Z,96668.34
2018-08-28T22:33:18.460Z,96667.59
2018-08-28T22:35:47.284Z,96671.88
2018-08-28T22:38:16.101Z,96662.37
2018-08-28T22:40:44.908Z,96667.69
2018-08-28T22:43:18.104Z,96664.26
2018-08-28T22:45:46.915Z,96659.00
2018-08-28T22:48:15.759Z,96656.95
2018-08-28T22:50:44.910Z,96653.67
2018-08-28T22:53:13.702Z,96650.84
2018-08-28T22:55:42.483Z,96650.44
2018-08-28T22:58:11.284Z,96653.20
2018-08-28T23:00:40.112Z,96645.45
2018-08-28T23:03:08.879Z,96642.38
2018-08-28T23:05:37.652Z,96646.30
2018-08-28T23:08:06.419Z,96649.28
2018-08-28T23:10:35.161Z,96641.55
2018-08-28T23:13:04.089Z,96640.25
2018-08-28T23:15:33.160Z,96638.65
2018-08-28T23:18:01.958Z,96629.83
2018-08-28T23:20:30.724Z,96633.51
2018-08-28T23:22:59.468Z,96624.34
2018-08-28T23:25:28.239Z,96624.01
2018-08-28T23:27:56.984Z,96618.05
2018-08-28T23:30:25.752Z,96620.33
2018-08-28T23:32:54.636Z,96613.76
2018-08-28T23:35:23.420Z,96616.66
2018-08-28T23:37:52.175Z,96611.98
2018-08-28T23:40:20.928Z,96607.78
2018-08-28T23:42:49.704Z,96609.69
2018-08-28T23:45:18.572Z,96611.23
2018-08-28T23:47:47.320Z,96613.22
2018-08-28T23:50:16.156Z,96602.91
2018-08-28T23:52:44.893Z,96600.37
2018-08-28T23:55:13.672Z,96600.50
2018-08-28T23:57:42.509Z,96598.59
